Dallas Love Field
KDAL : now visible

Airfield :











YOU CAN JOIN US ON...

 
LOGIN :

Register | Disclaimer

   EN    FR    IT 

 









Legend :    VFR   Marginal VFR   IFR   Intensive IFR   Very Intensive IFR
Visi :
Ceiling :
>= 8 km
>= 3000ft
5 to 8 km
1000 to 3000 ft
1500m to 5 km
500 to 1000 ft
800 to 1500m
200 to 500 ft
< 800m
< 200 ft
Symbols :   Thunderstorms  Fog  Heavy snow  Heavy precipitations  Wind > 20 kt






- Airport Elevation : 487 ft
- IATA code : DAL


KDAL - Dallas Love Field

CURRENT METAR :
  • 250353Z 08006KT 7SM TSRA SCT050CB BKN100 OVC120 17/16 A2978 RMK AO2 SLP080 OCNL LTGICCG ALQDS TS ALQDS MOV E P0005 T01720161

EXPIRED METARs :
  • 250253Z 06004KT 7SM -TSRA FEW007 FEW027 OVC036CB 17/17 A2980 RMK AO2 SLP085 OCNL LTGICCG ALQDS TS ALQDS MOV NE P0110 60184 T01720167 51041
  • 250233Z 06004KT 3SM R13L/0700VP6000FT +TSRA BR FEW007 SCT027CB OVC036 17/17 A2982 RMK AO2 FRQ LTGICCG ALQDS TS ALQDS MOV NE P0104 T01720172
  • 250229Z VRB03KT 2 1/2SM R13L/0700VP6000FT +TSRA BR FEW005 BKN027CB OVC049 17/17 A2983 RMK AO2 VIS 1 1/2V4 FRQ LTGICCG ALQDS TS ALQDS MOV NE P0101 T01720172
  • 250223Z 02007G20KT 340V050 1SM R13L/3000VP6000FT +TSRA BR BKN009 OVC049CB 17/17 A2982 RMK AO2 FRQ LTGICCG ALQDS TS ALQDS MOV NE P0092 T01720172
  • 250213Z 31014G25KT 280V340 3/4SM R13L/2800VP6000FT +TSRA BR FEW009 OVC046CB 17/17 A2983 RMK AO2 FRQ LTGICCG ALQDS TS ALQDS MOV NE P0027 T01720167
  • 250153Z 04009KT 6SM -TSRA BR FEW011 OVC045CB 18/17 A2976 RMK AO2 RAE21B28 SLP072 OCNL LTGICCG SW-NW TS SW-NW MOV NE P0017 T01780167

TAF KDAL
Valid from the 25 at 03:00 until the 26 at 00:00 UTC


250301Z 2503/2524 06010KT 5SM RA VCTS BKN025CB
FM250500 30010KT P6SM -RA BKN015
FM250800 31010KT P6SM BKN012
FM251700 30017KT P6SM SCT025 BKN035
KZFW FIR / North America



MET'MAP, your aeronautical weather chart ! - Copyright ORBIFLY December 2007 - Disclaimer

ORBIFLY MET'MAP TEAM :

Programming & Development : Alexandra Zaïnal
Original concept : Baudouin d'Aumeries
Technical & hardware support : Manuel Goepfert
Assistance : Marc-Olivier Méhu

Contact : metmap@orbifly.com




SOURCES & CREDITS :

   NOAA       Earth
Advisory